Time,TemperatureF,DewpointF,PressureIn,WindDirection,WindDirectionDegrees,WindSpeedMPH,WindSpeedGustMPH,Humidity,HourlyPrecipIn,Conditions,Clouds,dailyrainin,SoftwareType,DateUTC
2013-11-10 00:10:00,57.4,49.5,29.93,ESE,112,3.2,-999.0,75,-99.99,,,0.00,Acu-Link.com,2013-11-10 06:10:00,
2013-11-10 00:25:00,57.0,49.5,29.93,SSE,157,2.2,-999.0,76,-99.99,,,0.00,Acu-Link.com,2013-11-10 06:25:00,
2013-11-10 00:40:00,56.5,49.0,29.93,ESE,112,0.0,-999.0,76,-99.99,,,0.00,Acu-Link.com,2013-11-10 06:40:00,
2013-11-10 00:56:00,55.9,48.4,29.94,SE,135,1.1,-999.0,76,-99.99,,,0.00,Acu-Link.com,2013-11-10 06:56:00,
2013-11-10 01:11:00,55.8,48.3,29.94,South,180,1.7,-999.0,76,-99.99,,,0.00,Acu-Link.com,2013-11-10 07:11:00,
2013-11-10 01:26:00,55.0,47.2,29.95,NW,315,0.0,-999.0,75,-99.99,,,0.00,Acu-Link.com,2013-11-10 07:26:00,
2013-11-10 01:41:00,54.3,46.9,29.95,West,270,0.0,-999.0,76,-99.99,,,0.00,Acu-Link.com,2013-11-10 07:41:00,
2013-11-10 01:56:00,53.8,46.8,29.95,SW,225,0.0,-999.0,77,-99.99,,,0.00,Acu-Link.com,2013-11-10 07:56:00,
2013-11-10 02:11:00,53.2,46.2,29.96,ESE,112,0.0,-999.0,77,-99.99,,,0.00,Acu-Link.com,2013-11-10 08:11:00,
2013-11-10 02:27:00,53.1,46.4,29.96,ENE,67,0.0,-999.0,78,-99.99,,,0.00,Acu-Link.com,2013-11-10 08:27:00,
2013-11-10 02:42:00,53.4,46.7,29.95,WNW,292,0.0,-999.0,78,-99.99,,,0.00,Acu-Link.com,2013-11-10 08:42:00,
2013-11-10 02:57:00,54.5,47.4,29.95,East,90,0.0,-999.0,77,-99.99,,,0.00,Acu-Link.com,2013-11-10 08:57:00,
2013-11-10 03:12:00,55.6,47.8,29.96,WSW,247,0.0,-999.0,75,-99.99,,,0.00,Acu-Link.com,2013-11-10 09:12:00,
2013-11-10 03:27:00,56.1,47.9,29.96,North,0,0.0,-999.0,74,-99.99,,,0.00,Acu-Link.com,2013-11-10 09:27:00,
2013-11-10 03:43:00,56.3,47.8,29.96,South,180,0.0,-999.0,73,-99.99,,,0.00,Acu-Link.com,2013-11-10 09:43:00,
2013-11-10 03:58:00,56.3,47.4,29.97,SSE,157,1.7,-999.0,72,-99.99,,,0.00,Acu-Link.com,2013-11-10 09:58:00,
2013-11-10 04:13:00,56.7,47.4,29.97,NNE,22,0.0,-999.0,71,-99.99,,,0.00,Acu-Link.com,2013-11-10 10:13:00,
2013-11-10 04:29:00,56.7,47.8,29.98,SE,135,0.0,-999.0,72,-99.99,,,0.00,Acu-Link.com,2013-11-10 10:29:00,
2013-11-10 04:44:00,56.7,47.4,29.98,South,180,2.7,-999.0,71,-99.99,,,0.00,Acu-Link.com,2013-11-10 10:44:00,
2013-11-10 04:59:00,56.7,47.4,29.98,SSE,157,1.1,-999.0,71,-99.99,,,0.00,Acu-Link.com,2013-11-10 10:59:00,
2013-11-10 05:14:00,56.5,47.6,29.99,South,180,2.2,-999.0,72,-99.99,,,0.00,Acu-Link.com,2013-11-10 11:14:00,
2013-11-10 05:29:00,56.5,47.6,29.99,East,90,2.2,-999.0,72,-99.99,,,0.00,Acu-Link.com,2013-11-10 11:29:00,
2013-11-10 05:45:00,56.3,47.4,30.00,SSE,157,3.2,-999.0,72,-99.99,,,0.00,Acu-Link.com,2013-11-10 11:45:00,
2013-11-10 06:00:00,56.3,47.4,30.00,SSE,157,1.7,-999.0,72,-99.99,,,0.00,Acu-Link.com,2013-11-10 12:00:00,
2013-11-10 06:15:00,56.1,47.2,30.01,NE,45,3.2,-999.0,72,-99.99,,,0.00,Acu-Link.com,2013-11-10 12:15:00,
2013-11-10 06:30:00,56.1,47.2,30.01,ESE,112,1.1,-999.0,72,-99.99,,,0.00,Acu-Link.com,2013-11-10 12:30:00,
2013-11-10 06:46:00,55.9,47.0,30.01,ESE,112,1.7,-999.0,72,-99.99,,,0.00,Acu-Link.com,2013-11-10 12:46:00,
2013-11-10 07:01:00,55.9,47.4,30.01,ESE,112,2.2,-999.0,73,-99.99,,,0.00,Acu-Link.com,2013-11-10 13:01:00,
2013-11-10 07:32:00,55.9,47.4,30.04,NE,45,1.1,-999.0,73,-99.99,,,0.00,Acu-Link.com,2013-11-10 13:32:00,
2013-11-10 07:47:00,56.1,47.6,30.04,SSW,202,2.2,-999.0,73,-99.99,,,0.00,Acu-Link.com,2013-11-10 13:47:00,
2013-11-10 08:02:00,56.3,47.8,30.04,SSE,157,0.0,-999.0,73,-99.99,,,0.00,Acu-Link.com,2013-11-10 14:02:00,
2013-11-10 08:17:00,56.5,47.9,30.05,ESE,112,0.0,-999.0,73,-99.99,,,0.00,Acu-Link.com,2013-11-10 14:17:00,
2013-11-10 08:33:00,56.8,47.9,30.05,SW,225,2.7,-999.0,72,-99.99,,,0.00,Acu-Link.com,2013-11-10 14:33:00,
2013-11-10 08:48:00,57.6,48.6,30.05,SSE,157,0.0,-999.0,72,-99.99,,,0.00,Acu-Link.com,2013-11-10 14:48:00,
2013-11-10 09:03:00,57.9,48.6,30.06,South,180,0.0,-999.0,71,-99.99,,,0.00,Acu-Link.com,2013-11-10 15:03:00,
2013-11-10 09:18:00,58.6,48.8,30.05,ESE,112,1.1,-999.0,70,-99.99,,,0.00,Acu-Link.com,2013-11-10 15:18:00,
2013-11-10 09:34:00,59.4,49.2,30.05,SSW,202,2.2,-999.0,69,-99.99,,,0.00,Acu-Link.com,2013-11-10 15:34:00,
2013-11-10 09:49:00,60.3,49.3,30.05,SSE,157,2.2,-999.0,67,-99.99,,,0.00,Acu-Link.com,2013-11-10 15:49:00,
2013-11-10 10:04:00,61.2,49.3,30.05,ESE,112,1.7,-999.0,65,-99.99,,,0.00,Acu-Link.com,2013-11-10 16:04:00,
2013-11-10 10:20:00,61.5,49.6,30.05,SE,135,0.0,-999.0,65,-99.99,,,0.00,Acu-Link.com,2013-11-10 16:20:00,
2013-11-10 10:35:00,61.7,49.8,30.05,SSE,157,0.0,-999.0,65,-99.99,,,0.00,Acu-Link.com,2013-11-10 16:35:00,
2013-11-10 10:50:00,62.2,49.9,30.05,SSE,157,0.0,-999.0,64,-99.99,,,0.00,Acu-Link.com,2013-11-10 16:50:00,
2013-11-10 11:06:00,62.6,50.7,30.05,SSW,202,0.0,-999.0,65,-99.99,,,0.00,Acu-Link.com,2013-11-10 17:06:00,
2013-11-10 11:21:00,62.4,51.3,30.05,WSW,247,0.0,-999.0,67,-99.99,,,0.00,Acu-Link.com,2013-11-10 17:21:00,
2013-11-10 11:36:00,62.8,50.9,30.04,South,180,0.0,-999.0,65,-99.99,,,0.00,Acu-Link.com,2013-11-10 17:36:00,
2013-11-10 11:52:00,62.8,51.3,30.04,South,180,4.2,-999.0,66,-99.99,,,0.00,Acu-Link.com,2013-11-10 17:52:00,
2013-11-10 12:07:00,63.7,51.3,30.03,SSE,157,0.0,-999.0,64,-99.99,,,0.00,Acu-Link.com,2013-11-10 18:07:00,
2013-11-10 12:22:00,64.2,51.3,30.03,East,90,2.2,-999.0,63,-99.99,,,0.00,Acu-Link.com,2013-11-10 18:22:00,
2013-11-10 12:38:00,65.1,51.3,30.02,ESE,112,1.7,-999.0,61,-99.99,,,0.00,Acu-Link.com,2013-11-10 18:38:00,
2013-11-10 12:53:00,65.5,51.7,30.01,South,180,4.2,-999.0,61,-99.99,,,0.00,Acu-Link.com,2013-11-10 18:53:00,
2013-11-10 13:08:00,66.7,52.4,30.00,South,180,1.1,-999.0,60,-99.99,,,0.00,Acu-Link.com,2013-11-10 19:08:00,
2013-11-10 13:23:00,67.5,52.7,29.99,North,0,0.0,-999.0,59,-99.99,,,0.00,Acu-Link.com,2013-11-10 19:23:00,
2013-11-10 13:38:00,64.2,51.8,29.99,SSE,157,1.7,-999.0,64,-99.99,,,0.00,Acu-Link.com,2013-11-10 19:38:00,
2013-11-10 13:54:00,64.2,51.3,29.99,East,90,2.2,-999.0,63,-99.99,,,0.00,Acu-Link.com,2013-11-10 19:54:00,
2013-11-10 14:09:00,64.8,51.5,29.99,SSW,202,2.7,-999.0,62,-99.99,,,0.00,Acu-Link.com,2013-11-10 20:09:00,
2013-11-10 14:24:00,64.8,51.9,29.98,NNE,22,0.0,-999.0,63,-99.99,,,0.00,Acu-Link.com,2013-11-10 20:24:00,
2013-11-10 14:40:00,66.0,52.2,29.98,NNE,22,0.0,-999.0,61,-99.99,,,0.00,Acu-Link.com,2013-11-10 20:40:00,
2013-11-10 14:55:00,67.8,52.9,29.98,WNW,292,0.0,-999.0,59,-99.99,,,0.00,Acu-Link.com,2013-11-10 20:55:00,
2013-11-10 15:10:00,66.7,52.4,29.97,NNE,22,1.7,-999.0,60,-99.99,,,0.00,Acu-Link.com,2013-11-10 21:10:00,
2013-11-10 15:25:00,67.6,52.8,29.97,WSW,247,0.0,-999.0,59,-99.99,,,0.00,Acu-Link.com,2013-11-10 21:25:00,
2013-11-10 15:41:00,65.8,52.0,29.96,ESE,112,2.2,-999.0,61,-99.99,,,0.00,Acu-Link.com,2013-11-10 21:41:00,
2013-11-10 15:56:00,66.6,52.3,29.96,SSE,157,3.2,-999.0,60,-99.99,,,0.00,Acu-Link.com,2013-11-10 21:56:00,
2013-11-10 16:11:00,66.4,52.1,29.97,East,90,2.7,-999.0,60,-99.99,,,0.00,Acu-Link.com,2013-11-10 22:11:00,
2013-11-10 16:26:00,65.7,52.3,29.98,ESE,112,1.7,-999.0,62,-99.99,,,0.00,Acu-Link.com,2013-11-10 22:26:00,
2013-11-10 16:41:00,64.4,51.5,29.97,West,270,0.0,-999.0,63,-99.99,,,0.00,Acu-Link.com,2013-11-10 22:41:00,
2013-11-10 16:57:00,64.6,52.1,29.98,SE,135,0.0,-999.0,64,-99.99,,,0.00,Acu-Link.com,2013-11-10 22:57:00,
2013-11-10 17:12:00,63.5,51.9,29.97,NNW,337,0.0,-999.0,66,-99.99,,,0.00,Acu-Link.com,2013-11-10 23:12:00,
2013-11-10 17:27:00,61.9,52.4,29.98,ENE,67,0.0,-999.0,71,-99.99,,,0.00,Acu-Link.com,2013-11-10 23:27:00,
2013-11-10 17:43:00,59.7,51.0,29.97,ENE,67,0.0,-999.0,73,-99.99,,,0.00,Acu-Link.com,2013-11-10 23:43:00,
2013-11-10 17:58:00,57.9,50.4,29.98,ENE,67,0.0,-999.0,76,-99.99,,,0.00,Acu-Link.com,2013-11-10 23:58:00,
2013-11-10 18:13:00,57.2,50.4,29.98,North,0,0.0,-999.0,78,-99.99,,,0.00,Acu-Link.com,2013-11-11 00:13:00,
2013-11-10 18:28:00,55.9,50.2,29.98,ENE,67,0.0,-999.0,81,-99.99,,,0.00,Acu-Link.com,2013-11-11 00:28:00,
2013-11-10 18:44:00,55.4,49.3,29.99,ENE,67,0.0,-999.0,80,-99.99,,,0.00,Acu-Link.com,2013-11-11 00:44:00,
2013-11-10 18:59:00,54.9,49.5,29.99,West,270,0.0,-999.0,82,-99.99,,,0.00,Acu-Link.com,2013-11-11 00:59:00,
2013-11-10 19:14:00,53.8,49.1,29.99,NNE,22,0.0,-999.0,84,-99.99,,,0.00,Acu-Link.com,2013-11-11 01:14:00,
2013-11-10 19:30:00,53.4,49.3,29.99,North,0,0.0,-999.0,86,-99.99,,,0.00,Acu-Link.com,2013-11-11 01:30:00,
2013-11-10 19:45:00,53.1,48.7,29.99,North,0,0.0,-999.0,85,-99.99,,,0.00,Acu-Link.com,2013-11-11 01:45:00,
2013-11-10 20:00:00,52.7,48.9,29.99,North,0,0.0,-999.0,87,-99.99,,,0.00,Acu-Link.com,2013-11-11 02:00:00,
2013-11-10 20:16:00,52.3,48.5,29.99,NW,315,0.0,-999.0,87,-99.99,,,0.00,Acu-Link.com,2013-11-11 02:16:00,
2013-11-10 20:31:00,51.8,48.1,29.99,NNE,22,0.0,-999.0,87,-99.99,,,0.00,Acu-Link.com,2013-11-11 02:31:00,
2013-11-10 20:46:00,51.4,48.0,29.99,NNE,22,0.0,-999.0,88,-99.99,,,0.00,Acu-Link.com,2013-11-11 02:46:00,
2013-11-10 21:02:00,51.1,48.0,29.99,NNW,337,0.0,-999.0,89,-99.99,,,0.00,Acu-Link.com,2013-11-11 03:02:00,
2013-11-10 21:17:00,50.4,47.3,30.00,NNE,22,0.0,-999.0,89,-99.99,,,0.00,Acu-Link.com,2013-11-11 03:17:00,
2013-11-10 21:32:00,50.4,47.6,30.00,North,0,0.0,-999.0,90,-99.99,,,0.00,Acu-Link.com,2013-11-11 03:32:00,
2013-11-10 21:48:00,50.9,48.7,29.99,NNW,337,0.0,-999.0,92,-99.99,,,0.00,Acu-Link.com,2013-11-11 03:48:00,
2013-11-10 22:03:00,50.0,47.8,29.99,NE,45,0.0,-999.0,92,-99.99,,,0.00,Acu-Link.com,2013-11-11 04:03:00,
2013-11-10 22:18:00,49.6,47.4,29.99,NE,45,0.0,-999.0,92,-99.99,,,0.00,Acu-Link.com,2013-11-11 04:18:00,
2013-11-10 22:33:00,49.3,47.1,29.99,NE,45,0.0,-999.0,92,-99.99,,,0.00,Acu-Link.com,2013-11-11 04:33:00,
2013-11-10 22:49:00,49.5,47.6,29.99,NE,45,0.0,-999.0,93,-99.99,,,0.00,Acu-Link.com,2013-11-11 04:49:00,
2013-11-10 23:04:00,49.5,47.6,29.99,NNE,22,0.0,-999.0,93,-99.99,,,0.00,Acu-Link.com,2013-11-11 05:04:00,
2013-11-10 23:19:00,48.9,47.0,29.99,NNE,22,0.0,-999.0,93,-99.99,,,0.00,Acu-Link.com,2013-11-11 05:19:00,
2013-11-10 23:35:00,48.7,47.1,29.99,NE,45,0.0,-999.0,94,-99.99,,,0.00,Acu-Link.com,2013-11-11 05:35:00,
2013-11-10 23:50:00,48.4,46.8,29.99,NNE,22,0.0,-999.0,94,-99.99,,,0.00,Acu-Link.com,2013-11-11 05:50:00,